Time,TemperatureF,DewpointF,PressureIn,WindDirection,WindDirectionDegrees,WindSpeedMPH,WindSpeedGustMPH,Humidity,HourlyPrecipIn,Conditions,Clouds,dailyrainin,SoftwareType,DateUTC
2013-07-30 00:03:00,60.1,56.2,29.25,South,180,1.6,1.6,87,0.00,CLR,,0.00,WeatherDisplay:10.37,2013-07-30 05:03:00,
2013-07-30 00:08:00,59.7,56.2,29.25,SW,225,1.2,0.0,88,0.00,CLR,,0.00,WeatherDisplay:10.37,2013-07-30 05:08:00,
2013-07-30 00:13:00,59.5,56.0,29.25,South,180,1.2,0.0,88,0.00,CLR,,0.00,WeatherDisplay:10.37,2013-07-30 05:13:00,
2013-07-30 00:18:00,59.5,56.0,29.25,South,180,0.0,0.0,88,0.00,CLR,,0.00,WeatherDisplay:10.37,2013-07-30 05:18:00,
2013-07-30 00:23:00,59.4,56.1,29.25,South,180,0.0,0.0,89,0.00,CLR,,0.00,WeatherDisplay:10.37,2013-07-30 05:23:00,
2013-07-30 00:28:00,59.2,55.9,29.25,South,180,0.0,0.0,89,0.00,CLR,,0.00,WeatherDisplay:10.37,2013-07-30 05:28:00,
2013-07-30 00:33:00,59.2,55.9,29.25,South,180,0.0,0.0,89,0.00,CLR,,0.00,WeatherDisplay:10.37,2013-07-30 05:33:00,
2013-07-30 00:38:00,59.0,55.8,29.25,South,180,0.0,0.0,89,0.00,CLR,,0.00,WeatherDisplay:10.37,2013-07-30 05:38:00,
2013-07-30 00:43:00,58.8,55.6,29.24,South,180,0.0,0.0,89,0.00,CLR,,0.00,WeatherDisplay:10.37,2013-07-30 05:43:00,
2013-07-30 00:48:00,58.6,55.7,29.24,South,180,0.0,0.0,90,0.00,CLR,,0.00,WeatherDisplay:10.37,2013-07-30 05:48:00,
2013-07-30 00:53:00,58.5,55.5,29.24,South,180,1.2,0.0,90,0.00,CLR,,0.00,WeatherDisplay:10.37,2013-07-30 05:53:00,
2013-07-30 00:58:00,58.5,55.8,29.24,South,180,2.3,2.3,91,0.00,CLR,,0.00,WeatherDisplay:10.37,2013-07-30 05:58:00,
2013-07-30 01:03:00,58.3,55.7,29.24,South,180,1.2,0.0,91,0.00,CLR,,0.00,WeatherDisplay:10.37,2013-07-30 06:03:00,
2013-07-30 01:08:00,58.1,55.5,29.24,South,180,1.2,0.0,91,0.00,CLR,,0.00,WeatherDisplay:10.37,2013-07-30 06:08:00,
2013-07-30 01:13:00,57.9,55.6,29.24,South,180,1.2,1.2,92,0.00,CLR,,0.00,WeatherDisplay:10.37,2013-07-30 06:13:00,
2013-07-30 01:18:00,57.9,55.6,29.24,South,180,1.2,0.0,92,0.00,CLR,,0.00,WeatherDisplay:10.37,2013-07-30 06:18:00,
2013-07-30 01:23:00,57.7,55.4,29.24,South,180,0.0,0.0,92,0.00,CLR,,0.00,WeatherDisplay:10.37,2013-07-30 06:23:00,
2013-07-30 01:28:00,57.7,55.4,29.24,South,180,0.0,0.0,92,0.00,CLR,,0.00,WeatherDisplay:10.37,2013-07-30 06:28:00,
2013-07-30 01:33:00,57.6,55.3,29.24,South,180,0.0,0.0,92,0.00,CLR,,0.00,WeatherDisplay:10.37,2013-07-30 06:33:00,
2013-07-30 01:38:00,57.4,55.1,29.24,South,180,0.0,0.0,92,0.00,CLR,,0.00,WeatherDisplay:10.37,2013-07-30 06:38:00,
2013-07-30 01:43:00,57.2,54.9,29.24,South,180,0.0,0.0,92,0.00,CLR,,0.00,WeatherDisplay:10.37,2013-07-30 06:43:00,
2013-07-30 01:48:00,57.0,54.7,29.24,South,180,0.0,0.0,92,0.00,CLR,,0.00,WeatherDisplay:10.37,2013-07-30 06:48:00,
2013-07-30 01:53:00,57.0,54.7,29.24,South,180,0.0,0.0,92,0.00,CLR,,0.00,WeatherDisplay:10.37,2013-07-30 06:53:00,
2013-07-30 01:58:00,57.0,54.7,29.24,South,180,0.0,0.0,92,0.00,CLR,,0.00,WeatherDisplay:10.37,2013-07-30 06:58:00,
2013-07-30 02:03:00,57.0,55.0,29.24,South,180,0.0,0.0,93,0.00,CLR,,0.00,WeatherDisplay:10.37,2013-07-30 07:03:00,
2013-07-30 02:08:00,56.8,54.8,29.24,South,180,0.0,0.0,93,0.00,CLR,,0.00,WeatherDisplay:10.37,2013-07-30 07:08:00,
2013-07-30 02:13:00,56.8,54.8,29.24,South,180,0.0,0.0,93,0.00,CLR,,0.00,WeatherDisplay:10.37,2013-07-30 07:13:00,
2013-07-30 02:18:00,56.7,54.7,29.24,South,180,0.0,0.0,93,0.00,CLR,,0.00,WeatherDisplay:10.37,2013-07-30 07:18:00,
2013-07-30 02:23:00,56.7,54.7,29.24,SW,225,0.0,0.0,93,0.00,CLR,,0.00,WeatherDisplay:10.37,2013-07-30 07:23:00,
2013-07-30 02:28:00,56.7,54.7,29.23,SW,225,0.0,0.0,93,0.00,CLR,,0.00,WeatherDisplay:10.37,2013-07-30 07:28:00,
2013-07-30 02:33:00,56.7,54.7,29.24,South,180,0.0,0.0,93,0.00,CLR,,0.00,WeatherDisplay:10.37,2013-07-30 07:33:00,
2013-07-30 02:38:00,56.7,54.7,29.24,South,180,0.0,0.0,93,0.00,CLR,,0.00,WeatherDisplay:10.37,2013-07-30 07:38:00,
2013-07-30 02:43:00,56.5,54.5,29.24,SW,225,0.0,0.0,93,0.00,CLR,,0.00,WeatherDisplay:10.37,2013-07-30 07:43:00,
2013-07-30 02:48:00,56.5,54.5,29.24,SW,225,0.0,0.0,93,0.00,CLR,,0.00,WeatherDisplay:10.37,2013-07-30 07:48:00,
2013-07-30 02:53:00,56.1,54.1,29.24,SW,225,0.0,0.0,93,0.00,CLR,,0.00,WeatherDisplay:10.37,2013-07-30 07:53:00,
2013-07-30 02:58:00,56.1,54.1,29.24,SW,225,0.0,0.0,93,0.00,CLR,,0.00,WeatherDisplay:10.37,2013-07-30 07:58:00,
2013-07-30 03:03:00,56.1,54.1,29.24,SW,225,0.0,0.0,93,0.00,CLR,,0.00,WeatherDisplay:10.37,2013-07-30 08:03:00,
2013-07-30 03:08:00,55.9,53.9,29.24,SW,225,0.0,0.0,93,0.00,CLR,,0.00,WeatherDisplay:10.37,2013-07-30 08:08:00,
2013-07-30 03:13:00,55.8,53.8,29.23,SW,225,0.0,0.0,93,0.00,CLR,,0.00,WeatherDisplay:10.37,2013-07-30 08:13:00,
2013-07-30 03:18:00,55.8,53.8,29.24,SW,225,0.0,0.0,93,0.00,CLR,,0.00,WeatherDisplay:10.37,2013-07-30 08:18:00,
2013-07-30 03:23:00,55.8,54.1,29.24,South,180,0.0,0.0,94,0.00,CLR,,0.00,WeatherDisplay:10.37,2013-07-30 08:23:00,
2013-07-30 03:28:00,55.9,54.2,29.24,South,180,0.0,0.0,94,0.00,CLR,,0.00,WeatherDisplay:10.37,2013-07-30 08:28:00,
2013-07-30 03:33:00,55.9,54.2,29.24,South,180,0.0,0.0,94,0.00,CLR,,0.00,WeatherDisplay:10.37,2013-07-30 08:33:00,
2013-07-30 03:38:00,55.8,54.1,29.24,South,180,0.0,0.0,94,0.00,CLR,,0.00,WeatherDisplay:10.37,2013-07-30 08:38:00,
2013-07-30 03:43:00,55.6,53.9,29.24,South,180,0.0,0.0,94,0.00,CLR,,0.00,WeatherDisplay:10.37,2013-07-30 08:43:00,
2013-07-30 03:48:00,55.4,53.7,29.24,South,180,0.0,0.0,94,0.00,CLR,,0.00,WeatherDisplay:10.37,2013-07-30 08:48:00,
2013-07-30 03:53:00,55.4,53.7,29.24,South,180,0.0,0.0,94,0.00,CLR,,0.00,WeatherDisplay:10.37,2013-07-30 08:53:00,
2013-07-30 03:58:00,55.2,53.5,29.24,South,180,0.0,0.0,94,0.00,CLR,,0.00,WeatherDisplay:10.37,2013-07-30 08:58:00,
2013-07-30 04:03:00,55.2,53.5,29.24,South,180,0.0,0.0,94,0.00,CLR,,0.00,WeatherDisplay:10.37,2013-07-30 09:03:00,
2013-07-30 04:08:00,54.9,53.2,29.24,South,180,0.0,0.0,94,0.00,CLR,,0.00,WeatherDisplay:10.37,2013-07-30 09:08:00,
2013-07-30 04:13:00,54.7,53.0,29.24,South,180,0.0,0.0,94,0.00,CLR,,0.00,WeatherDisplay:10.37,2013-07-30 09:13:00,
2013-07-30 04:18:00,54.7,53.0,29.24,South,180,0.0,0.0,94,0.00,CLR,,0.00,WeatherDisplay:10.37,2013-07-30 09:18:00,
2013-07-30 04:23:00,54.9,53.5,29.24,South,180,0.0,0.0,95,0.00,CLR,,0.00,WeatherDisplay:10.37,2013-07-30 09:23:00,
2013-07-30 04:29:00,54.9,53.5,29.25,South,180,0.0,0.0,95,0.00,CLR,,0.00,WeatherDisplay:10.37,2013-07-30 09:29:00,
2013-07-30 04:34:00,54.9,53.5,29.25,South,180,0.0,0.0,95,0.00,CLR,,0.00,WeatherDisplay:10.37,2013-07-30 09:34:00,
2013-07-30 04:39:00,54.7,53.3,29.24,South,180,0.0,0.0,95,0.00,CLR,,0.00,WeatherDisplay:10.37,2013-07-30 09:39:00,
2013-07-30 04:44:00,54.9,53.5,29.24,South,180,0.0,0.0,95,0.00,CLR,,0.00,WeatherDisplay:10.37,2013-07-30 09:44:00,
2013-07-30 04:49:00,54.9,53.5,29.25,South,180,0.0,0.0,95,0.00,CLR,,0.00,WeatherDisplay:10.37,2013-07-30 09:49:00,
2013-07-30 04:54:00,55.0,53.6,29.24,South,180,0.0,0.0,95,0.00,CLR,,0.00,WeatherDisplay:10.37,2013-07-30 09:54:00,
2013-07-30 04:59:00,55.0,53.6,29.24,South,180,0.0,0.0,95,0.00,CLR,,0.00,WeatherDisplay:10.37,2013-07-30 09:59:00,
2013-07-30 05:04:00,55.0,53.6,29.24,South,180,0.0,0.0,95,0.00,CLR,,0.00,WeatherDisplay:10.37,2013-07-30 10:04:00,
2013-07-30 05:09:00,55.2,53.8,29.25,South,180,0.0,0.0,95,0.00,CLR,,0.00,WeatherDisplay:10.37,2013-07-30 10:09:00,
2013-07-30 05:14:00,55.4,54.0,29.24,South,180,0.0,0.0,95,0.00,CLR,,0.00,WeatherDisplay:10.37,2013-07-30 10:14:00,
2013-07-30 05:19:00,55.6,54.2,29.24,East,90,0.0,0.0,95,0.00,CLR,,0.00,WeatherDisplay:10.37,2013-07-30 10:19:00,
2013-07-30 05:24:00,55.6,54.2,29.24,SE,135,0.0,0.0,95,0.00,CLR,,0.00,WeatherDisplay:10.37,2013-07-30 10:24:00,
2013-07-30 05:29:00,55.8,54.3,29.24,South,180,0.0,0.0,95,0.00,CLR,,0.00,WeatherDisplay:10.37,2013-07-30 10:29:00,
2013-07-30 05:34:00,55.9,54.5,29.25,South,180,0.0,0.0,95,0.00,CLR,,0.00,WeatherDisplay:10.37,2013-07-30 10:34:00,
2013-07-30 05:39:00,56.1,54.7,29.25,South,180,2.3,2.3,95,0.00,CLR,,0.00,WeatherDisplay:10.37,2013-07-30 10:39:00,
2013-07-30 05:44:00,56.1,55.0,29.25,South,180,2.3,2.3,96,0.00,CLR,,0.00,WeatherDisplay:10.37,2013-07-30 10:44:00,
2013-07-30 05:49:00,56.1,55.0,29.25,South,180,2.3,2.3,96,0.00,CLR,,0.00,WeatherDisplay:10.37,2013-07-30 10:49:00,
2013-07-30 05:54:00,56.3,55.2,29.25,South,180,2.3,2.3,96,0.00,CLR,,0.00,WeatherDisplay:10.37,2013-07-30 10:54:00,
2013-07-30 05:59:00,56.3,55.2,29.25,South,180,3.5,3.5,96,0.00,CLR,,0.00,WeatherDisplay:10.37,2013-07-30 10:59:00,
2013-07-30 06:04:00,56.3,55.2,29.26,South,180,1.2,0.0,96,0.00,CLR,,0.00,WeatherDisplay:10.37,2013-07-30 11:04:00,
2013-07-30 06:09:00,56.3,55.2,29.25,South,180,3.5,3.5,96,0.00,CLR,,0.00,WeatherDisplay:10.37,2013-07-30 11:09:00,
2013-07-30 06:14:00,56.3,55.2,29.25,South,180,1.2,0.0,96,0.00,CLR,,0.00,WeatherDisplay:10.37,2013-07-30 11:14:00,
2013-07-30 06:19:00,56.5,55.4,29.26,South,180,1.2,0.0,96,0.00,CLR,,0.00,WeatherDisplay:10.37,2013-07-30 11:19:00,
2013-07-30 06:24:00,56.5,55.4,29.26,South,180,3.5,3.5,96,0.00,CLR,,0.00,WeatherDisplay:10.37,2013-07-30 11:24:00,
2013-07-30 06:29:00,56.5,55.4,29.26,South,180,1.2,1.2,96,0.00,CLR,,0.00,WeatherDisplay:10.37,2013-07-30 11:29:00,
2013-07-30 06:34:00,56.7,55.5,29.26,East,90,1.2,0.0,96,0.00,CLR,,0.00,WeatherDisplay:10.37,2013-07-30 11:34:00,
2013-07-30 06:39:00,56.7,55.5,29.26,South,180,1.2,0.0,96,0.00,CLR,,0.00,WeatherDisplay:10.37,2013-07-30 11:39:00,
2013-07-30 06:44:00,56.8,55.7,29.26,South,180,3.5,3.5,96,0.00,CLR,,0.00,WeatherDisplay:10.37,2013-07-30 11:44:00,
2013-07-30 06:49:00,57.0,55.6,29.26,South,180,2.3,2.3,95,0.00,CLR,,0.00,WeatherDisplay:10.37,2013-07-30 11:49:00,
2013-07-30 06:54:00,57.0,55.6,29.26,South,180,3.5,3.5,95,0.00,CLR,,0.00,WeatherDisplay:10.37,2013-07-30 11:54:00,
2013-07-30 06:59:00,57.2,55.8,29.27,South,180,3.5,3.5,95,0.00,CLR,,0.00,WeatherDisplay:10.37,2013-07-30 11:59:00,
2013-07-30 07:04:00,57.2,55.8,29.26,South,180,2.3,2.3,95,0.00,CLR,,0.00,WeatherDisplay:10.37,2013-07-30 12:04:00,
2013-07-30 07:09:00,57.6,56.1,29.26,South,180,3.5,3.5,95,0.00,CLR,,0.00,WeatherDisplay:10.37,2013-07-30 12:09:00,
2013-07-30 07:14:00,57.6,55.8,29.27,South,180,4.6,4.6,94,0.00,CLR,,0.00,WeatherDisplay:10.37,2013-07-30 12:14:00,
2013-07-30 07:19:00,57.6,55.8,29.27,SE,135,4.6,4.6,94,0.00,CLR,,0.00,WeatherDisplay:10.37,2013-07-30 12:19:00,
2013-07-30 07:24:00,57.6,55.8,29.27,South,180,2.3,0.0,94,0.00,CLR,,0.00,WeatherDisplay:10.37,2013-07-30 12:24:00,
2013-07-30 07:29:00,57.7,56.0,29.27,South,180,1.2,1.2,94,0.00,CLR,,0.00,WeatherDisplay:10.37,2013-07-30 12:29:00,
2013-07-30 07:34:00,57.9,56.2,29.26,South,180,1.2,1.2,94,0.00,CLR,,0.00,WeatherDisplay:10.37,2013-07-30 12:34:00,
2013-07-30 07:39:00,58.1,56.4,29.27,SE,135,3.5,3.5,94,0.00,CLR,,0.00,WeatherDisplay:10.37,2013-07-30 12:39:00,
2013-07-30 07:44:00,58.1,56.4,29.27,South,180,3.5,3.5,94,0.00,CLR,,0.00,WeatherDisplay:10.37,2013-07-30 12:44:00,
2013-07-30 07:49:00,58.3,56.3,29.27,South,180,2.3,2.3,93,0.00,CLR,,0.00,WeatherDisplay:10.37,2013-07-30 12:49:00,
2013-07-30 07:54:00,58.5,56.4,29.26,South,180,2.3,2.3,93,0.00,CLR,,0.00,WeatherDisplay:10.37,2013-07-30 12:54:00,
2013-07-30 07:59:00,58.8,56.8,29.27,South,180,2.3,0.0,93,0.00,CLR,,0.00,WeatherDisplay:10.37,2013-07-30 12:59:00,
2013-07-30 08:04:00,59.0,57.0,29.27,East,90,1.2,0.0,93,0.00,CLR,,0.00,WeatherDisplay:10.37,2013-07-30 13:04:00,
2013-07-30 08:09:00,59.2,56.9,29.27,South,180,1.2,1.2,92,0.00,CLR,,0.00,WeatherDisplay:10.37,2013-07-30 13:09:00,
2013-07-30 08:14:00,59.4,56.7,29.27,SW,225,3.5,3.5,91,0.00,CLR,,0.00,WeatherDisplay:10.37,2013-07-30 13:14:00,
2013-07-30 08:19:00,59.4,56.7,29.27,SE,135,1.2,1.2,91,0.00,CLR,,0.00,WeatherDisplay:10.37,2013-07-30 13:19:00,
2013-07-30 08:24:00,59.7,57.1,29.26,SE,135,2.3,2.3,91,0.00,CLR,,0.00,WeatherDisplay:10.37,2013-07-30 13:24:00,
2013-07-30 08:29:00,60.3,57.6,29.27,South,180,0.0,0.0,91,0.00,CLR,,0.00,WeatherDisplay:10.37,2013-07-30 13:29:00,
2013-07-30 08:34:00,60.8,57.8,29.27,SW,225,1.2,0.0,90,0.00,CLR,,0.00,WeatherDisplay:10.37,2013-07-30 13:34:00,
2013-07-30 08:39:00,61.2,57.9,29.27,SE,135,1.2,0.0,89,0.00,CLR,,0.00,WeatherDisplay:10.37,2013-07-30 13:39:00,
2013-07-30 08:44:00,61.2,57.3,29.27,South,180,4.6,4.6,87,0.00,CLR,,0.00,WeatherDisplay:10.37,2013-07-30 13:44:00,
2013-07-30 08:49:00,61.2,57.6,29.27,SE,135,2.3,0.0,88,0.00,CLR,,0.00,WeatherDisplay:10.37,2013-07-30 13:49:00,
2013-07-30 08:54:00,61.7,57.8,29.27,SW,225,4.6,4.6,87,0.00,CLR,,0.00,WeatherDisplay:10.37,2013-07-30 13:54:00,
2013-07-30 08:59:00,61.9,57.6,29.27,SW,225,5.8,5.8,86,0.00,CLR,,0.00,WeatherDisplay:10.37,2013-07-30 13:59:00,
2013-07-30 09:04:00,62.6,58.4,29.26,SW,225,5.8,5.8,86,0.00,CLR,,0.00,WeatherDisplay:10.37,2013-07-30 14:04:00,
2013-07-30 09:09:00,63.3,58.4,29.26,South,180,5.8,5.8,84,0.00,CLR,,0.00,WeatherDisplay:10.37,2013-07-30 14:09:00,
2013-07-30 09:14:00,64.0,58.8,29.26,SW,225,5.8,5.8,83,0.00,CLR,,0.00,WeatherDisplay:10.37,2013-07-30 14:14:00,
2013-07-30 09:19:00,64.6,59.0,29.25,SE,135,3.5,3.5,82,0.00,CLR,,0.00,WeatherDisplay:10.37,2013-07-30 14:19:00,
2013-07-30 09:24:00,64.8,59.1,29.26,SE,135,3.5,3.5,82,0.00,CLR,,0.00,WeatherDisplay:10.37,2013-07-30 14:24:00,
2013-07-30 09:29:00,65.5,59.5,29.26,SE,135,5.8,0.0,81,0.00,CLR,,0.00,WeatherDisplay:10.37,2013-07-30 14:29:00,
2013-07-30 09:34:00,65.8,59.1,29.25,South,180,3.5,3.5,79,0.00,CLR,,0.00,WeatherDisplay:10.37,2013-07-30 14:34:00,
2013-07-30 09:39:00,66.0,59.3,29.26,South,180,2.3,2.3,79,0.00,CLR,,0.00,WeatherDisplay:10.37,2013-07-30 14:39:00,
2013-07-30 09:44:00,66.2,59.1,29.26,East,90,2.3,2.3,78,0.00,CLR,,0.00,WeatherDisplay:10.37,2013-07-30 14:44:00,
2013-07-30 09:49:00,66.6,59.1,29.26,South,180,2.3,2.3,77,0.00,CLR,,0.00,WeatherDisplay:10.37,2013-07-30 14:49:00,
2013-07-30 09:54:00,66.7,59.3,29.26,South,180,4.6,4.6,77,0.00,CLR,,0.00,WeatherDisplay:10.37,2013-07-30 14:54:00,
2013-07-30 09:59:00,66.7,59.3,29.25,East,90,3.5,3.5,77,0.00,CLR,,0.00,WeatherDisplay:10.37,2013-07-30 14:59:00,
2013-07-30 10:04:00,66.7,59.3,29.25,SW,225,3.5,3.5,77,0.00,CLR,,0.00,WeatherDisplay:10.37,2013-07-30 15:04:00,
2013-07-30 10:09:00,66.7,59.3,29.25,SE,135,1.2,1.2,77,0.00,CLR,,0.00,WeatherDisplay:10.37,2013-07-30 15:09:00,
2013-07-30 10:14:00,66.6,58.8,29.25,SE,135,3.5,3.5,76,0.00,CLR,,0.00,WeatherDisplay:10.37,2013-07-30 15:14:00,
2013-07-30 10:19:00,66.4,58.9,29.25,South,180,3.5,3.5,77,0.00,CLR,,0.00,WeatherDisplay:10.37,2013-07-30 15:19:00,
2013-07-30 10:24:00,66.7,58.9,29.25,East,90,3.5,3.5,76,0.00,CLR,,0.00,WeatherDisplay:10.37,2013-07-30 15:24:00,
2013-07-30 10:29:00,67.1,59.3,29.25,South,180,3.5,3.5,76,0.00,CLR,,0.00,WeatherDisplay:10.37,2013-07-30 15:29:00,
2013-07-30 10:34:00,67.8,59.6,29.25,SE,135,3.5,3.5,75,0.00,CLR,,0.00,WeatherDisplay:10.37,2013-07-30 15:34:00,
2013-07-30 10:39:00,68.2,59.2,29.25,SE,135,4.6,4.6,73,0.00,CLR,,0.00,WeatherDisplay:10.37,2013-07-30 15:39:00,
2013-07-30 10:44:00,68.4,59.7,29.25,SE,135,5.8,5.8,74,0.00,CLR,,0.00,WeatherDisplay:10.37,2013-07-30 15:44:00,
2013-07-30 10:49:00,68.5,59.2,29.24,South,180,3.8,3.8,72,0.00,CLR,,0.00,WeatherDisplay:10.37,2013-07-30 15:49:00,
2013-07-30 10:54:00,68.7,59.7,29.24,South,180,3.5,3.5,73,0.00,CLR,,0.00,WeatherDisplay:10.37,2013-07-30 15:54:00,
2013-07-30 10:59:00,68.9,59.5,29.24,South,180,4.6,4.6,72,0.00,CLR,,0.00,WeatherDisplay:10.37,2013-07-30 15:59:00,
2013-07-30 11:04:00,70.0,59.7,29.24,SE,135,4.6,4.6,70,0.00,CLR,,0.00,WeatherDisplay:10.37,2013-07-30 16:04:00,
2013-07-30 11:09:00,70.2,59.9,29.24,NW,315,6.9,6.9,70,0.00,CLR,,0.00,WeatherDisplay:10.37,2013-07-30 16:09:00,
2013-07-30 11:14:00,70.2,59.5,29.24,South,180,3.5,3.5,69,0.00,CLR,,0.00,WeatherDisplay:10.37,2013-07-30 16:14:00,
2013-07-30 11:19:00,70.3,59.7,29.25,SE,135,6.9,6.9,69,0.00,CLR,,0.00,WeatherDisplay:10.37,2013-07-30 16:19:00,
2013-07-30 11:24:00,70.7,59.6,29.24,SE,135,3.5,3.5,68,0.00,CLR,,0.00,WeatherDisplay:10.37,2013-07-30 16:24:00,
2013-07-30 11:29:00,70.5,59.4,29.24,East,90,5.8,5.8,68,0.00,CLR,,0.00,WeatherDisplay:10.37,2013-07-30 16:29:00,
2013-07-30 11:35:00,70.7,59.6,29.24,West,270,3.5,3.5,68,0.00,CLR,,0.00,WeatherDisplay:10.37,2013-07-30 16:35:00,
2013-07-30 11:39:00,70.9,59.8,29.24,South,180,3.5,3.5,68,0.00,CLR,,0.00,WeatherDisplay:10.37,2013-07-30 16:39:00,
2013-07-30 11:45:00,70.9,59.4,29.24,South,180,3.5,3.5,67,0.00,CLR,,0.00,WeatherDisplay:10.37,2013-07-30 16:45:00,
2013-07-30 11:50:00,70.9,59.4,29.24,South,180,4.6,4.6,67,0.00,CLR,,0.00,WeatherDisplay:10.37,2013-07-30 16:50:00,
2013-07-30 11:55:00,70.7,59.6,29.24,SE,135,2.3,2.3,68,0.00,CLR,,0.00,WeatherDisplay:10.37,2013-07-30 16:55:00,
2013-07-30 12:00:00,70.7,59.6,29.24,SE,135,3.5,3.5,68,0.00,CLR,,0.00,WeatherDisplay:10.37,2013-07-30 17:00:00,
2013-07-30 12:05:00,70.9,59.8,29.24,South,180,1.2,0.0,68,0.00,CLR,,0.00,WeatherDisplay:10.37,2013-07-30 17:05:00,
2013-07-30 12:10:00,71.1,60.4,29.24,West,270,3.5,0.0,69,0.00,CLR,,0.00,WeatherDisplay:10.37,2013-07-30 17:10:00,
2013-07-30 12:15:00,71.2,60.5,29.24,SE,135,3.5,3.5,69,0.00,CLR,,0.00,WeatherDisplay:10.37,2013-07-30 17:15:00,
2013-07-30 12:20:00,71.6,60.5,29.23,East,90,3.5,3.5,68,0.00,CLR,,0.00,WeatherDisplay:10.37,2013-07-30 17:20:00,
2013-07-30 12:25:00,71.8,59.8,29.23,East,90,3.5,3.5,66,0.00,CLR,,0.00,WeatherDisplay:10.37,2013-07-30 17:25:00,
2013-07-30 12:30:00,72.1,60.2,29.23,East,90,4.6,4.6,66,0.00,CLR,,0.00,WeatherDisplay:10.37,2013-07-30 17:30:00,
2013-07-30 12:35:00,72.7,60.2,29.23,South,180,3.5,3.5,65,0.00,CLR,,0.00,WeatherDisplay:10.37,2013-07-30 17:35:00,
2013-07-30 12:40:00,73.6,60.2,29.23,SE,135,3.5,3.5,63,0.00,CLR,,0.00,WeatherDisplay:10.37,2013-07-30 17:40:00,
2013-07-30 12:45:00,73.8,59.9,29.22,SE,135,4.6,4.6,62,0.00,CLR,,0.00,WeatherDisplay:10.37,2013-07-30 17:45:00,
2013-07-30 12:50:00,73.8,59.9,29.22,SE,135,4.6,4.6,62,0.00,CLR,,0.00,WeatherDisplay:10.37,2013-07-30 17:50:00,
2013-07-30 12:55:00,75.6,60.2,29.21,East,90,4.6,4.6,59,0.00,CLR,,0.00,WeatherDisplay:10.37,2013-07-30 17:55:00,
2013-07-30 13:00:00,75.2,59.9,29.21,East,90,3.5,3.5,59,0.00,CLR,,0.00,WeatherDisplay:10.37,2013-07-30 18:00:00,
2013-07-30 13:05:00,74.3,60.9,29.22,South,180,3.5,3.5,63,0.00,CLR,,0.00,WeatherDisplay:10.37,2013-07-30 18:05:00,
2013-07-30 13:10:00,73.9,60.5,29.21,SE,135,3.8,3.8,63,0.00,CLR,,0.00,WeatherDisplay:10.37,2013-07-30 18:10:00,
2013-07-30 13:15:00,73.4,60.0,29.21,SE,135,6.9,6.9,63,0.00,CLR,,0.00,WeatherDisplay:10.37,2013-07-30 18:15:00,
2013-07-30 13:20:00,73.4,60.5,29.21,NE,45,3.5,3.5,64,0.00,CLR,,0.00,WeatherDisplay:10.37,2013-07-30 18:20:00,
2013-07-30 13:25:00,73.4,60.0,29.21,SE,135,5.8,5.8,63,0.00,CLR,,0.00,WeatherDisplay:10.37,2013-07-30 18:25:00,
2013-07-30 13:30:00,73.9,60.5,29.21,South,180,2.3,2.3,63,0.00,CLR,,0.00,WeatherDisplay:10.37,2013-07-30 18:30:00,
2013-07-30 13:35:00,74.3,59.0,29.20,East,90,6.9,6.9,59,0.00,CLR,,0.00,WeatherDisplay:10.37,2013-07-30 18:35:00,
2013-07-30 13:40:00,74.5,59.2,29.20,SW,225,5.8,5.8,59,0.00,CLR,,0.00,WeatherDisplay:10.37,2013-07-30 18:40:00,
2013-07-30 13:45:00,74.7,57.9,29.20,SW,225,5.8,5.8,56,0.00,CLR,,0.00,WeatherDisplay:10.37,2013-07-30 18:45:00,
2013-07-30 13:50:00,75.4,58.6,29.20,SSW,202,4.6,4.6,56,0.00,CLR,,0.00,WeatherDisplay:10.37,2013-07-30 18:50:00,
2013-07-30 13:55:00,75.6,59.3,29.20,SE,135,5.8,5.8,57,0.00,CLR,,0.00,WeatherDisplay:10.37,2013-07-30 18:55:00,
2013-07-30 14:00:00,75.2,58.4,29.20,South,180,10.4,10.4,56,0.00,CLR,,0.00,WeatherDisplay:10.37,2013-07-30 19:00:00,
2013-07-30 14:05:00,75.6,58.3,29.20,South,180,8.1,8.1,55,0.00,CLR,,0.00,WeatherDisplay:10.37,2013-07-30 19:05:00,
2013-07-30 14:10:00,76.1,57.2,29.20,South,180,5.8,5.8,52,0.00,CLR,,0.00,WeatherDisplay:10.37,2013-07-30 19:10:00,
2013-07-30 14:15:00,76.1,57.7,29.20,SW,225,10.4,10.4,53,0.00,CLR,,0.00,WeatherDisplay:10.37,2013-07-30 19:15:00,
2013-07-30 14:20:00,75.9,58.6,29.19,NE,45,4.6,4.6,55,0.00,CLR,,0.00,WeatherDisplay:10.37,2013-07-30 19:20:00,
2013-07-30 14:21:00,75.9,58.6,29.19,NE,45,4.6,4.6,55,0.00,CLR,,0.00,WeatherDisplay:10.37,2013-07-30 19:21:00,
2013-07-30 14:26:00,77.7,58.7,29.20,East,90,5.8,5.8,52,0.00,CLR,,0.00,WeatherDisplay:10.37,2013-07-30 19:26:00,
2013-07-30 14:31:00,78.1,58.5,29.19,SE,135,3.5,3.5,51,0.00,CLR,,0.00,WeatherDisplay:10.37,2013-07-30 19:31:00,
2013-07-30 14:36:00,77.7,58.1,29.19,SE,135,2.3,2.3,51,0.00,CLR,,0.00,WeatherDisplay:10.37,2013-07-30 19:36:00,
2013-07-30 14:41:00,77.7,58.7,29.18,South,180,6.9,6.9,52,0.00,CLR,,0.00,WeatherDisplay:10.37,2013-07-30 19:41:00,
2013-07-30 14:46:00,78.1,56.2,29.19,South,180,9.2,9.2,47,0.00,CLR,,0.00,WeatherDisplay:10.37,2013-07-30 19:46:00,
2013-07-30 14:51:00,77.7,58.7,29.19,South,180,5.8,5.8,52,0.00,CLR,,0.00,WeatherDisplay:10.37,2013-07-30 19:51:00,
2013-07-30 14:56:00,77.7,57.6,29.19,East,90,5.8,5.8,50,0.00,CLR,,0.00,WeatherDisplay:10.37,2013-07-30 19:56:00,
2013-07-30 15:01:00,77.4,57.3,29.19,East,90,8.1,8.1,50,0.00,CLR,,0.00,WeatherDisplay:10.37,2013-07-30 20:01:00,
2013-07-30 15:06:00,76.8,57.9,29.18,South,180,4.6,4.6,52,0.00,CLR,,0.00,WeatherDisplay:10.37,2013-07-30 20:06:00,
2013-07-30 15:11:00,77.0,58.0,29.18,West,270,3.5,3.5,52,0.00,CLR,,0.00,WeatherDisplay:10.37,2013-07-30 20:11:00,
2013-07-30 15:16:00,76.5,57.5,29.18,South,180,11.5,11.5,52,0.00,CLR,,0.00,WeatherDisplay:10.37,2013-07-30 20:16:00,
2013-07-30 15:21:00,76.5,58.1,29.18,SE,135,5.8,5.8,53,0.00,CLR,,0.00,WeatherDisplay:10.37,2013-07-30 20:21:00,
2013-07-30 15:26:00,76.8,58.4,29.18,SE,135,5.8,5.8,53,0.00,CLR,,0.00,WeatherDisplay:10.37,2013-07-30 20:26:00,
2013-07-30 15:31:00,76.6,58.2,29.18,South,180,8.1,8.1,53,0.00,CLR,,0.00,WeatherDisplay:10.37,2013-07-30 20:31:00,
2013-07-30 15:36:00,76.6,58.2,29.18,NE,45,4.6,4.6,53,0.00,CLR,,0.00,WeatherDisplay:10.37,2013-07-30 20:36:00,
2013-07-30 15:41:00,76.6,58.2,29.17,South,180,5.8,5.8,53,0.00,CLR,,0.00,WeatherDisplay:10.37,2013-07-30 20:41:00,
2013-07-30 15:46:00,76.6,58.2,29.18,South,180,3.5,3.5,53,0.00,CLR,,0.00,WeatherDisplay:10.37,2013-07-30 20:46:00,
2013-07-30 15:51:00,76.8,58.9,29.17,SE,135,6.9,6.9,54,0.00,CLR,,0.00,WeatherDisplay:10.37,2013-07-30 20:51:00,
2013-07-30 15:56:00,76.5,59.6,29.18,South,180,5.8,5.8,56,0.00,CLR,,0.00,WeatherDisplay:10.37,2013-07-30 20:56:00,
2013-07-30 16:01:00,76.5,59.6,29.18,South,180,4.5,4.5,56,0.00,CLR,,0.00,WeatherDisplay:10.37,2013-07-30 21:01:00,
2013-07-30 16:06:00,76.3,59.4,29.18,South,180,8.1,8.1,56,0.00,CLR,,0.00,WeatherDisplay:10.37,2013-07-30 21:06:00,
2013-07-30 16:11:00,75.7,59.9,29.17,South,180,8.1,8.1,58,0.00,CLR,,0.00,WeatherDisplay:10.37,2013-07-30 21:11:00,
2013-07-30 16:16:00,75.9,60.1,29.18,South,180,5.8,5.8,58,0.00,CLR,,0.00,WeatherDisplay:10.37,2013-07-30 21:16:00,
2013-07-30 16:21:00,76.5,59.6,29.18,ENE,68,3.5,3.5,56,0.00,CLR,,0.00,WeatherDisplay:10.37,2013-07-30 21:21:00,
2013-07-30 16:26:00,76.3,59.4,29.18,South,180,3.5,3.5,56,0.00,CLR,,0.00,WeatherDisplay:10.37,2013-07-30 21:26:00,
2013-07-30 16:31:00,76.3,59.9,29.18,SE,135,3.5,3.5,57,0.00,CLR,,0.00,WeatherDisplay:10.37,2013-07-30 21:31:00,
2013-07-30 16:36:00,76.3,60.4,29.18,SE,135,3.5,3.5,58,0.00,CLR,,0.00,WeatherDisplay:10.37,2013-07-30 21:36:00,
2013-07-30 16:41:00,76.3,59.9,29.18,SE,135,3.5,3.5,57,0.00,CLR,,0.00,WeatherDisplay:10.37,2013-07-30 21:41:00,
2013-07-30 16:46:00,76.6,60.8,29.17,South,180,2.3,2.3,58,0.00,CLR,,0.00,WeatherDisplay:10.37,2013-07-30 21:46:00,
2013-07-30 16:51:00,76.3,60.4,29.17,SE,135,1.2,1.2,58,0.00,CLR,,0.00,WeatherDisplay:10.37,2013-07-30 21:51:00,
2013-07-30 16:56:00,75.4,59.6,29.17,SW,225,8.1,8.1,58,0.00,CLR,,0.00,WeatherDisplay:10.37,2013-07-30 21:56:00,
2013-07-30 17:01:00,75.4,60.1,29.17,South,180,4.6,4.6,59,0.00,CLR,,0.00,WeatherDisplay:10.37,2013-07-30 22:01:00,
2013-07-30 17:06:00,75.2,59.9,29.17,South,180,3.5,3.5,59,0.00,CLR,,0.00,WeatherDisplay:10.37,2013-07-30 22:06:00,
2013-07-30 17:11:00,75.0,59.2,29.17,South,180,6.9,6.9,58,0.00,CLR,,0.00,WeatherDisplay:10.37,2013-07-30 22:11:00,
2013-07-30 17:16:00,75.0,59.7,29.17,SE,135,3.5,3.5,59,0.00,CLR,,0.00,WeatherDisplay:10.37,2013-07-30 22:16:00,
2013-07-30 17:21:00,75.0,59.2,29.17,South,180,1.2,1.2,58,0.00,CLR,,0.00,WeatherDisplay:10.37,2013-07-30 22:21:00,
2013-07-30 17:26:00,75.0,59.2,29.17,South,180,1.2,1.2,58,0.00,CLR,,0.00,WeatherDisplay:10.37,2013-07-30 22:26:00,
2013-07-30 17:31:00,74.7,58.9,29.17,SE,135,6.9,6.9,58,0.00,CLR,,0.00,WeatherDisplay:10.37,2013-07-30 22:31:00,
2013-07-30 17:36:00,74.7,58.4,29.17,SW,225,6.9,6.9,57,0.00,CLR,,0.00,WeatherDisplay:10.37,2013-07-30 22:36:00,
2013-07-30 17:42:00,74.7,58.9,29.17,SE,135,5.8,5.8,58,0.00,CLR,,0.00,WeatherDisplay:10.37,2013-07-30 22:42:00,
2013-07-30 17:47:00,74.3,57.6,29.17,South,180,4.6,4.6,56,0.00,CLR,,0.00,WeatherDisplay:10.37,2013-07-30 22:47:00,
2013-07-30 17:52:00,74.1,58.4,29.16,SE,135,3.8,3.8,58,0.00,CLR,,0.00,WeatherDisplay:10.37,2013-07-30 22:52:00,
2013-07-30 17:57:00,73.9,58.2,29.17,South,180,5.8,5.8,58,0.00,CLR,,0.00,WeatherDisplay:10.37,2013-07-30 22:57:00,
2013-07-30 18:02:00,73.6,58.4,29.17,SE,135,3.5,3.5,59,0.00,CLR,,0.00,WeatherDisplay:10.37,2013-07-30 23:02:00,
2013-07-30 18:07:00,73.6,58.4,29.17,South,180,3.5,3.5,59,0.00,CLR,,0.00,WeatherDisplay:10.37,2013-07-30 23:07:00,
2013-07-30 18:12:00,73.4,58.7,29.16,South,180,3.5,3.5,60,0.00,CLR,,0.00,WeatherDisplay:10.37,2013-07-30 23:12:00,
2013-07-30 18:17:00,73.4,58.7,29.17,South,180,3.8,3.8,60,0.00,CLR,,0.00,WeatherDisplay:10.37,2013-07-30 23:17:00,
2013-07-30 18:22:00,73.4,58.7,29.17,South,180,4.6,4.6,60,0.00,CLR,,0.00,WeatherDisplay:10.37,2013-07-30 23:22:00,
2013-07-30 18:27:00,73.4,59.1,29.17,SE,135,3.5,3.5,61,0.00,CLR,,0.00,WeatherDisplay:10.37,2013-07-30 23:27:00,
2013-07-30 18:32:00,73.4,59.1,29.17,SE,135,3.5,3.5,61,0.00,CLR,,0.00,WeatherDisplay:10.37,2013-07-30 23:32:00,
2013-07-30 18:37:00,73.2,59.4,29.17,SE,135,2.3,2.3,62,0.00,CLR,,0.00,WeatherDisplay:10.37,2013-07-30 23:37:00,
2013-07-30 18:42:00,73.2,59.4,29.17,South,180,1.2,0.0,62,0.00,CLR,,0.00,WeatherDisplay:10.37,2013-07-30 23:42:00,
2013-07-30 18:47:00,73.2,59.4,29.17,South,180,1.2,0.0,62,0.00,CLR,,0.00,WeatherDisplay:10.37,2013-07-30 23:47:00,
2013-07-30 18:52:00,73.2,59.4,29.16,South,180,2.3,2.3,62,0.00,CLR,,0.00,WeatherDisplay:10.37,2013-07-30 23:52:00,
2013-07-30 18:57:00,73.0,59.7,29.16,SE,135,2.3,2.3,63,0.00,CLR,,0.00,WeatherDisplay:10.37,2013-07-30 23:57:00,
2013-07-30 19:02:00,72.9,59.5,29.16,South,180,3.5,3.5,63,0.00,CLR,,0.00,WeatherDisplay:10.37,2013-07-31 00:02:00,
2013-07-30 19:07:00,72.7,59.8,29.16,South,180,3.5,3.5,64,0.00,CLR,,0.00,WeatherDisplay:10.37,2013-07-31 00:07:00,
2013-07-30 19:12:00,72.7,59.8,29.16,SE,135,3.5,3.5,64,0.00,CLR,,0.00,WeatherDisplay:10.37,2013-07-31 00:12:00,
2013-07-30 19:17:00,72.5,60.1,29.16,SE,135,1.2,0.0,65,0.00,CLR,,0.00,WeatherDisplay:10.37,2013-07-31 00:17:00,
2013-07-30 19:22:00,72.5,60.1,29.17,South,180,2.3,0.0,65,0.00,CLR,,0.00,WeatherDisplay:10.37,2013-07-31 00:22:00,
2013-07-30 19:27:00,72.3,60.3,29.17,South,180,2.3,2.3,66,0.00,CLR,,0.00,WeatherDisplay:10.37,2013-07-31 00:27:00,
2013-07-30 19:32:00,72.0,60.0,29.16,SW,225,4.6,4.6,66,0.00,CLR,,0.00,WeatherDisplay:10.37,2013-07-31 00:32:00,
2013-07-30 19:37:00,71.8,59.8,29.17,South,180,2.3,3.1,66,0.00,CLR,,0.00,WeatherDisplay:10.37,2013-07-31 00:37:00,
2013-07-30 19:42:00,71.6,60.1,29.16,South,180,6.0,6.0,67,0.00,CLR,,0.00,WeatherDisplay:10.37,2013-07-31 00:42:00,
2013-07-30 19:47:00,71.4,59.9,29.16,SE,135,3.5,3.5,67,0.00,CLR,,0.00,WeatherDisplay:10.37,2013-07-31 00:47:00,
2013-07-30 19:52:00,71.4,59.9,29.16,SW,225,5.8,5.8,67,0.00,CLR,,0.00,WeatherDisplay:10.37,2013-07-31 00:52:00,
2013-07-30 19:57:00,71.1,59.5,29.16,South,180,6.9,6.9,67,0.00,CLR,,0.00,WeatherDisplay:10.37,2013-07-31 00:57:00,
2013-07-30 20:03:00,71.1,59.5,29.16,South,180,4.6,4.6,67,0.00,CLR,,0.00,WeatherDisplay:10.37,2013-07-31 01:03:00,
2013-07-30 20:08:00,70.9,59.0,29.16,South,180,8.1,8.1,66,0.00,CLR,,0.00,WeatherDisplay:10.37,2013-07-31 01:08:00,
2013-07-30 20:13:00,70.9,59.0,29.16,South,180,8.1,8.1,66,0.00,CLR,,0.00,WeatherDisplay:10.37,2013-07-31 01:13:00,
2013-07-30 20:18:00,70.7,59.2,29.16,SW,225,5.8,5.8,67,0.00,CLR,,0.00,WeatherDisplay:10.37,2013-07-31 01:18:00,
2013-07-30 20:23:00,70.3,58.9,29.16,South,180,5.8,5.8,67,0.00,CLR,,0.00,WeatherDisplay:10.37,2013-07-31 01:23:00,
2013-07-30 20:28:00,70.3,58.9,29.16,SW,225,5.8,5.8,67,0.00,CLR,,0.00,WeatherDisplay:10.37,2013-07-31 01:28:00,
2013-07-30 20:33:00,70.2,58.7,29.16,South,180,5.8,5.8,67,0.00,CLR,,0.00,WeatherDisplay:10.37,2013-07-31 01:33:00,
2013-07-30 20:38:00,70.2,58.7,29.16,South,180,5.8,5.8,67,0.00,CLR,,0.00,WeatherDisplay:10.37,2013-07-31 01:38:00,
2013-07-30 20:43:00,70.0,58.9,29.16,SW,225,4.6,4.6,68,0.00,CLR,,0.00,WeatherDisplay:10.37,2013-07-31 01:43:00,
2013-07-30 20:48:00,69.8,58.8,29.16,SW,225,3.5,3.5,68,0.00,CLR,,0.00,WeatherDisplay:10.37,2013-07-31 01:48:00,
2013-07-30 20:53:00,69.8,59.2,29.16,South,180,4.6,4.6,69,0.00,CLR,,0.00,WeatherDisplay:10.37,2013-07-31 01:53:00,
2013-07-30 20:58:00,69.6,59.0,29.16,SE,135,5.8,5.8,69,0.00,CLR,,0.00,WeatherDisplay:10.37,2013-07-31 01:58:00,
2013-07-30 21:03:00,69.4,59.2,29.16,South,180,3.5,3.5,70,0.00,CLR,,0.00,WeatherDisplay:10.37,2013-07-31 02:03:00,
2013-07-30 21:08:00,69.4,59.2,29.16,South,180,3.5,3.5,70,0.00,CLR,,0.00,WeatherDisplay:10.37,2013-07-31 02:08:00,
2013-07-30 21:13:00,69.3,59.1,29.16,South,180,3.5,3.5,70,0.00,CLR,,0.00,WeatherDisplay:10.37,2013-07-31 02:13:00,
2013-07-30 21:18:00,69.1,59.3,29.16,SE,135,4.6,4.6,71,0.00,CLR,,0.00,WeatherDisplay:10.37,2013-07-31 02:18:00,
2013-07-30 21:23:00,69.1,59.3,29.16,SW,225,3.5,3.5,71,0.00,CLR,,0.00,WeatherDisplay:10.37,2013-07-31 02:23:00,
2013-07-30 21:28:00,69.1,59.3,29.17,SW,225,3.5,3.5,71,0.00,CLR,,0.00,WeatherDisplay:10.37,2013-07-31 02:28:00,
2013-07-30 21:33:00,68.9,59.5,29.17,South,180,3.5,3.5,72,0.00,CLR,,0.00,WeatherDisplay:10.37,2013-07-31 02:33:00,
2013-07-30 21:38:00,68.9,59.5,29.17,SW,225,3.5,3.5,72,0.00,CLR,,0.00,WeatherDisplay:10.37,2013-07-31 02:38:00,
2013-07-30 21:43:00,68.7,59.3,29.17,SW,225,3.5,3.5,72,0.00,CLR,,0.00,WeatherDisplay:10.37,2013-07-31 02:43:00,
2013-07-30 21:48:00,68.7,59.3,29.17,SSW,202,3.5,3.5,72,0.00,CLR,,0.00,WeatherDisplay:10.37,2013-07-31 02:48:00,
2013-07-30 21:53:00,68.7,59.7,29.18,South,180,3.5,3.5,73,0.00,CLR,,0.00,WeatherDisplay:10.37,2013-07-31 02:53:00,
2013-07-30 21:58:00,68.5,59.5,29.17,South,180,2.3,2.3,73,0.00,CLR,,0.00,WeatherDisplay:10.37,2013-07-31 02:58:00,
2013-07-30 22:03:00,68.5,59.5,29.17,SW,225,2.3,2.3,73,0.00,CLR,,0.00,WeatherDisplay:10.37,2013-07-31 03:03:00,
2013-07-30 22:08:00,68.5,59.5,29.17,South,180,2.3,2.3,73,0.00,CLR,,0.00,WeatherDisplay:10.37,2013-07-31 03:08:00,
2013-07-30 22:13:00,68.4,59.4,29.18,SW,225,2.3,2.3,73,0.00,CLR,,0.00,WeatherDisplay:10.37,2013-07-31 03:13:00,
2013-07-30 22:18:00,68.4,59.7,29.18,South,180,3.5,3.5,74,0.00,CLR,,0.00,WeatherDisplay:10.37,2013-07-31 03:18:00,
2013-07-30 22:23:00,68.2,59.6,29.18,South,180,1.2,1.2,74,0.00,CLR,,0.00,WeatherDisplay:10.37,2013-07-31 03:23:00,
2013-07-30 22:28:00,68.2,59.6,29.18,South,180,2.3,2.3,74,0.00,CLR,,0.00,WeatherDisplay:10.37,2013-07-31 03:28:00,
2013-07-30 22:33:00,68.2,60.0,29.18,South,180,1.2,0.0,75,0.00,CLR,,0.00,WeatherDisplay:10.37,2013-07-31 03:33:00,
2013-07-30 22:38:00,68.0,59.8,29.17,South,180,0.0,0.0,75,0.00,CLR,,0.00,WeatherDisplay:10.37,2013-07-31 03:38:00,
2013-07-30 22:43:00,67.8,59.6,29.18,South,180,0.0,0.0,75,0.00,CLR,,0.00,WeatherDisplay:10.37,2013-07-31 03:43:00,
2013-07-30 22:48:00,67.8,60.0,29.17,South,180,1.2,1.2,76,0.00,CLR,,0.00,WeatherDisplay:10.37,2013-07-31 03:48:00,
2013-07-30 22:53:00,67.6,60.2,29.17,South,180,1.2,1.2,77,0.00,CLR,,0.00,WeatherDisplay:10.37,2013-07-31 03:53:00,
2013-07-30 22:58:00,67.5,60.0,29.18,South,180,1.2,1.2,77,0.00,CLR,,0.00,WeatherDisplay:10.37,2013-07-31 03:58:00,
2013-07-30 23:01:00,67.5,60.0,29.17,South,180,1.2,1.2,77,0.00,CLR,,0.00,WeatherDisplay:10.37,2013-07-31 04:01:00,
2013-07-30 23:02:00,67.5,60.0,29.17,South,180,1.2,1.2,77,0.00,CLR,,0.00,WeatherDisplay:10.37,2013-07-31 04:02:00,
2013-07-30 23:07:00,67.5,60.0,29.17,South,180,1.2,1.2,77,0.00,CLR,,0.00,WeatherDisplay:10.37,2013-07-31 04:07:00,
2013-07-30 23:12:00,67.1,60.0,29.17,South,180,3.5,3.5,78,0.00,CLR,,0.00,WeatherDisplay:10.37,2013-07-31 04:12:00,
2013-07-30 23:17:00,67.1,60.0,29.17,South,180,2.3,0.0,78,0.00,CLR,,0.00,WeatherDisplay:10.37,2013-07-31 04:17:00,
2013-07-30 23:22:00,66.9,60.2,29.16,South,180,1.2,0.0,79,0.00,CLR,,0.00,WeatherDisplay:10.37,2013-07-31 04:22:00,
2013-07-30 23:27:00,66.7,60.0,29.17,South,180,3.5,3.5,79,0.00,CLR,,0.00,WeatherDisplay:10.37,2013-07-31 04:27:00,
2013-07-30 23:32:00,66.6,60.2,29.17,SE,135,2.3,0.0,80,0.00,CLR,,0.00,WeatherDisplay:10.37,2013-07-31 04:32:00,
2013-07-30 23:38:00,66.2,59.8,29.17,South,180,1.2,0.0,80,0.00,CLR,,0.00,WeatherDisplay:10.37,2013-07-31 04:38:00,
2013-07-30 23:43:00,66.2,60.2,29.16,South,180,2.3,2.3,81,0.00,CLR,,0.00,WeatherDisplay:10.37,2013-07-31 04:43:00,
2013-07-30 23:48:00,65.8,59.8,29.17,South,180,2.3,2.3,81,0.00,CLR,,0.00,WeatherDisplay:10.37,2013-07-31 04:48:00,
2013-07-30 23:53:00,65.8,60.2,29.16,South,180,2.3,0.0,82,0.00,CLR,,0.00,WeatherDisplay:10.37,2013-07-31 04:53:00,
2013-07-30 23:58:00,65.7,60.4,29.16,South,180,2.3,2.3,83,0.00,CLR,,0.00,WeatherDisplay:10.37,2013-07-31 04:58:00,